Time;durP1;ratioP1;P1;durP2;ratioP2;P2;SDS_P1;SDS_P2;PMS_P1;PMS_P2;Temp;Humidity;BMP_temperature;BMP_pressure;BME280_temperature;BME280_humidity;BME280_pressure;Samples;Min_cycle;Max_cycle;Signal;HPM_P1;HPM_P2
2022/08/04 00:00:22;;;;;;;;;;;;;;;16.72;56.48;100763.06;4991279;28;1077;-57
2022/08/04 00:02:50;;;;;;;;;;;;;;;16.66;56.32;100764.19;4984779;28;1117;-57
2022/08/04 00:05:23;;;;;;;;;;;;;;;16.58;56.44;100760.06;4983724;28;959;-57
2022/08/04 00:08:03;;;;;;;;;;;;;;;16.58;56.09;100764.72;4994580;28;815;-57
2022/08/04 00:10:29;;;;;;;;;;;;;;;16.58;56.04;100761.97;4984454;28;948;-57
2022/08/04 00:12:54;;;;;;;;;;;;;;;16.55;56.13;100763.34;5008325;28;1914;-58
2022/08/04 00:15:20;;;;;;;;;;;;;;;16.52;55.93;100758.41;4992955;28;1291;-57
2022/08/04 00:17:45;;;;;;;;;;;;;;;16.49;56.15;100763.59;4991848;28;987;-57
2022/08/04 00:20:11;;;;;;;;;;;;;;;16.50;55.88;100768.00;4993865;28;1090;-57
2022/08/04 00:22:38;;;;;;;;;;;;;;;17.56;57.16;100776.41;4993944;28;1161;-57
2022/08/04 00:25:03;;;;;;;;;;;;;;;17.22;57.26;100773.47;5009156;28;1002;-57
2022/08/04 00:27:29;;;;;;;;;;;;;;;16.98;57.54;100776.00;5007269;28;1125;-57
2022/08/04 00:29:55;;;;;;;;;;;;;;;16.84;57.24;100781.19;4992236;28;1058;-58
2022/08/04 00:32:20;;;;;;;;;;;;;;;16.75;56.88;100789.97;4988254;28;1899;-58
2022/08/04 00:34:46;;;;;;;;;;;;;;;16.72;56.60;100785.03;4991593;28;995;-57
2022/08/04 00:37:11;;;;;;;;;;;;;;;16.70;56.63;100792.72;5000074;28;1140;-58
2022/08/04 00:39:37;;;;;;;;;;;;;;;16.63;56.29;100792.16;4995234;28;1133;-57
2022/08/04 00:42:05;;;;;;;;;;;;;;;16.59;56.32;100789.16;5003206;28;1030;-57
2022/08/04 00:44:49;;;;;;;;;;;;;;;16.60;55.94;100795.47;4991018;28;959;-57
2022/08/04 00:47:34;;;;;;;;;;;;;;;16.57;56.16;100790.53;4987508;28;982;-57
2022/08/04 00:49:59;;;;;;;;;;;;;;;16.50;56.04;100792.72;4983128;28;1030;-57
2022/08/04 00:52:32;;;;;;;;;;;;;;;16.52;56.01;100793.25;4992085;28;1910;-57
2022/08/04 00:55:00;;;;;;;;;;;;;;;16.49;55.92;100791.06;4992285;28;1168;-57
2022/08/04 00:57:35;;;;;;;;;;;;;;;17.10;57.12;100791.09;4989832;28;1015;-57
2022/08/04 01:00:05;;;;;;;;;;;;;;;17.42;57.43;100784.44;4990899;28;1149;-58
2022/08/04 01:02:49;;;;;;;;;;;;;;;17.00;57.34;100788.34;4992471;28;1129;-58
2022/08/04 01:05:20;;;;;;;;;;;;;;;16.90;57.23;100791.09;4982985;28;1082;-58
2022/08/04 01:08:04;;;;;;;;;;;;;;;16.75;56.76;100792.72;4988631;28;928;-58
2022/08/04 01:10:47;;;;;;;;;;;;;;;16.79;56.33;100794.91;4983929;28;952;-58
2022/08/04 01:13:16;;;;;;;;;;;;;;;16.67;56.54;100798.75;4981012;28;1986;-57
2022/08/04 01:15:45;;;;;;;;;;;;;;;16.60;56.40;100800.94;4995137;28;1117;-58
2022/08/04 01:18:13;;;;;;;;;;;;;;;16.60;56.25;100799.03;4990888;28;975;-58
2022/08/04 01:20:47;;;;;;;;;;;;;;;16.53;56.07;100798.47;5010587;28;1041;-57
2022/08/04 01:23:18;;;;;;;;;;;;;;;16.48;56.09;100789.41;4994214;28;1110;-59
2022/08/04 01:25:47;;;;;;;;;;;;;;;17.51;57.37;100800.34;4991902;28;1062;-59
2022/08/04 01:28:31;;;;;;;;;;;;;;;17.31;57.47;100796.56;4992935;28;1007;-60
2022/08/04 01:30:57;;;;;;;;;;;;;;;16.99;57.32;100792.19;4994267;28;1168;-60
2022/08/04 01:33:23;;;;;;;;;;;;;;;16.90;57.04;100791.94;4990964;28;1911;-58
2022/08/04 01:35:55;;;;;;;;;;;;;;;16.80;56.85;100793.81;4985323;28;1145;-58
2022/08/04 01:38:24;;;;;;;;;;;;;;;16.73;56.68;100783.09;5003971;28;1053;-58
2022/08/04 01:40:54;;;;;;;;;;;;;;;16.69;56.35;100791.09;4983793;28;1209;-58
2022/08/04 01:43:20;;;;;;;;;;;;;;;16.66;56.23;100782.56;5004846;28;894;-58
2022/08/04 01:45:48;;;;;;;;;;;;;;;16.62;56.06;100787.78;4993402;28;1027;-58
2022/08/04 01:48:13;;;;;;;;;;;;;;;16.58;56.12;100772.97;4990157;28;979;-58
2022/08/04 01:50:39;;;;;;;;;;;;;;;16.54;56.01;100771.84;5010190;28;978;-58
2022/08/04 01:53:04;;;;;;;;;;;;;;;16.47;55.99;100777.59;4995546;28;1903;-58
2022/08/04 01:55:30;;;;;;;;;;;;;;;16.49;55.82;100769.09;5010219;28;1005;-58
2022/08/04 01:57:57;;;;;;;;;;;;;;;16.71;56.45;100777.88;4993635;28;1093;-58
2022/08/04 02:00:23;;;;;;;;;;;;;;;17.52;57.00;100764.34;5008286;28;1053;-58
2022/08/04 02:02:49;;;;;;;;;;;;;;;17.03;57.53;100768.56;4987303;28;1161;-58
2022/08/04 02:05:14;;;;;;;;;;;;;;;16.91;57.17;100770.78;4986264;28;967;-58
2022/08/04 02:07:46;;;;;;;;;;;;;;;16.81;56.79;100765.28;4991738;28;1077;-59
2022/08/04 02:10:30;;;;;;;;;;;;;;;16.69;56.65;100763.63;4996069;28;1153;-59
2022/08/04 02:13:02;;;;;;;;;;;;;;;16.72;56.32;100763.06;4995979;28;1969;-58
2022/08/04 02:15:47;;;;;;;;;;;;;;;16.65;56.21;100773.50;4985738;28;1018;-58
2022/08/04 02:18:23;;;;;;;;;;;;;;;16.61;56.19;100769.66;4977664;28;1091;-58
2022/08/04 02:20:49;;;;;;;;;;;;;;;16.55;55.97;100757.84;4997341;28;868;-58
2022/08/04 02:23:15;;;;;;;;;;;;;;;16.54;56.00;100761.69;5011053;28;1011;-58
2022/08/04 02:25:45;;;;;;;;;;;;;;;16.48;56.21;100767.44;5007631;28;1030;-58
2022/08/04 02:28:30;;;;;;;;;;;;;;;17.15;57.14;100765.50;4998021;28;1011;-58
2022/08/04 02:31:15;;;;;;;;;;;;;;;17.29;57.56;100768.50;4990791;28;1162;-58
2022/08/04 02:33:42;;;;;;;;;;;;;;;16.98;57.42;100763.06;4986813;28;1890;-58
2022/08/04 02:36:08;;;;;;;;;;;;;;;16.87;57.11;100764.16;4990199;28;1133;-58
2022/08/04 02:38:42;;;;;;;;;;;;;;;16.82;56.82;100755.94;4988129;28;1098;-58
2022/08/04 02:41:08;;;;;;;;;;;;;;;16.72;56.56;100763.06;4994589;28;979;-58
2022/08/04 02:43:33;;;;;;;;;;;;;;;16.68;56.39;100772.94;4992126;28;1093;-58
2022/08/04 02:45:59;;;;;;;;;;;;;;;16.64;56.29;100763.63;4990306;28;1038;-58
2022/08/04 02:48:24;;;;;;;;;;;;;;;16.60;56.45;100765.25;5010142;28;1015;-58
2022/08/04 02:50:50;;;;;;;;;;;;;;;16.56;56.42;100764.16;5006201;28;1014;-58
2022/08/04 02:53:15;;;;;;;;;;;;;;;17.49;57.32;100769.56;4984931;28;1914;-58
2022/08/04 02:55:41;;;;;;;;;;;;;;;17.33;57.55;100772.34;5004936;28;1231;-58
2022/08/04 02:58:06;;;;;;;;;;;;;;;17.06;57.38;100768.00;4995156;28;1224;-57
2022/08/04 03:00:32;;;;;;;;;;;;;;;16.89;57.14;100762.00;5003438;28;1050;-58
2022/08/04 03:03:01;;;;;;;;;;;;;;;16.88;56.82;100765.81;4985372;28;987;-58
2022/08/04 03:05:31;;;;;;;;;;;;;;;16.78;56.65;100761.16;5011339;28;998;-60
2022/08/04 03:08:00;;;;;;;;;;;;;;;16.71;56.43;100760.59;5010441;28;1105;-59
2022/08/04 03:10:48;;;;;;;;;;;;;;;16.71;56.24;100761.41;4994968;28;987;-58
2022/08/04 03:13:23;;;;;;;;;;;;;;;16.64;56.19;100766.38;4993604;28;1910;-59
2022/08/04 03:15:48;;;;;;;;;;;;;;;16.58;56.22;100761.97;4996989;28;1384;-62
2022/08/04 03:18:20;;;;;;;;;;;;;;;16.54;56.20;100772.66;4992967;28;1197;-59
2022/08/04 03:20:45;;;;;;;;;;;;;;;16.55;56.25;100768.00;4987856;28;1113;-61
2022/08/04 03:23:23;;;;;;;;;;;;;;;16.50;56.15;100760.59;4988501;28;1093;-61
2022/08/04 03:25:52;;;;;;;;;;;;;;;16.42;56.17;100770.22;4991231;28;1133;-61
2022/08/04 03:28:30;;;;;;;;;;;;;;;16.51;55.95;100780.63;4992755;28;995;-61
2022/08/04 03:31:01;;;;;;;;;;;;;;;16.42;55.85;100780.34;4994672;28;987;-61
2022/08/04 03:33:35;;;;;;;;;;;;;;;16.47;56.06;100782.28;4990466;28;1989;-62
2022/08/04 03:36:07;;;;;;;;;;;;;;;16.37;56.10;100777.59;4986706;28;1090;-61
2022/08/04 03:38:39;;;;;;;;;;;;;;;16.48;55.99;100790.25;4990264;28;971;-61
2022/08/04 03:41:17;;;;;;;;;;;;;;;17.57;56.89;100782.72;4994957;28;1026;-61
2022/08/04 03:43:48;;;;;;;;;;;;;;;17.00;57.82;100780.13;4995588;28;959;-60
2022/08/04 03:46:14;;;;;;;;;;;;;;;16.83;57.31;100780.38;4988771;28;1054;-61
2022/08/04 03:48:42;;;;;;;;;;;;;;;16.79;57.13;100778.44;4987316;28;995;-63
2022/08/04 03:53:58;;;;;;;;;;;;;;;16.66;56.53;100791.63;5001871;28;1989;-62
2022/08/04 03:56:24;;;;;;;;;;;;;;;16.60;56.43;100798.19;4992274;28;1165;-63
2022/08/04 03:58:52;;;;;;;;;;;;;;;16.61;56.29;100791.63;4993284;28;1433;-62
2022/08/04 04:01:36;;;;;;;;;;;;;;;16.54;56.40;100793.81;4995070;28;1085;-63
2022/08/04 04:04:05;;;;;;;;;;;;;;;16.56;56.27;100802.59;4995979;28;1121;-62
2022/08/04 04:06:49;;;;;;;;;;;;;;;16.49;56.24;100799.28;4993692;28;1787;-63
2022/08/04 04:09:26;;;;;;;;;;;;;;;16.60;56.71;100798.19;4990788;28;1011;-62
2022/08/04 04:11:52;;;;;;;;;;;;;;;17.61;56.87;100797.56;4985091;28;1985;-62
2022/08/04 04:14:23;;;;;;;;;;;;;;;17.08;57.64;100800.69;4989327;28;2105;-63
2022/08/04 04:16:52;;;;;;;;;;;;;;;16.85;57.62;100791.09;4980806;28;1907;-61
2022/08/04 04:19:30;;;;;;;;;;;;;;;16.83;57.11;100787.78;4985762;28;1928;-65
2022/08/04 04:22:14;;;;;;;;;;;;;;;16.79;56.73;100792.16;4989672;28;2009;-61
2022/08/04 04:24:44;;;;;;;;;;;;;;;16.71;56.58;100799.03;4978659;28;1003;-64
2022/08/04 04:27:09;;;;;;;;;;;;;;;16.64;56.64;100799.31;4990226;28;1003;-62
2022/08/04 04:29:44;;;;;;;;;;;;;;;16.60;56.40;100803.69;4995905;28;1433;-62
2022/08/04 04:32:20;;;;;;;;;;;;;;;16.64;56.33;100799.31;4995476;28;1906;-61
2022/08/04 04:35:04;;;;;;;;;;;;;;;16.54;56.46;100808.34;4992035;28;1206;-61
2022/08/04 04:37:32;;;;;;;;;;;;;;;16.55;56.53;100800.94;4995444;28;971;-61
2022/08/04 04:40:12;;;;;;;;;;;;;;;16.53;56.33;100803.16;4996207;28;1010;-60
2022/08/04 04:42:53;;;;;;;;;;;;;;;16.54;56.02;100810.28;5000681;28;994;-61
2022/08/04 04:45:24;;;;;;;;;;;;;;;16.41;56.40;100795.16;5005668;28;1031;-62
2022/08/04 04:47:50;;;;;;;;;;;;;;;16.47;56.25;100804.25;4995990;28;1153;-56
2022/08/04 04:50:15;;;;;;;;;;;;;;;16.46;56.19;100794.34;4996015;28;1058;-55
2022/08/04 04:52:44;;;;;;;;;;;;;;;16.47;56.34;100801.50;4995628;28;2271;-55
2022/08/04 04:55:26;;;;;;;;;;;;;;;17.62;56.87;100796.47;4990249;28;1178;-60
2022/08/04 04:57:52;;;;;;;;;;;;;;;17.10;57.73;100799.31;4973677;28;1033;-61
2022/08/04 05:00:18;;;;;;;;;;;;;;;16.93;57.53;100796.06;4990463;28;1096;-60
2022/08/04 05:03:02;;;;;;;;;;;;;;;16.83;57.35;100790.53;5007626;28;1006;-57
2022/08/04 05:05:46;;;;;;;;;;;;;;;16.75;57.08;100791.91;4964014;28;1030;-59
2022/08/04 05:08:20;;;;;;;;;;;;;;;16.84;56.89;100792.19;4975549;28;1138;-58
2022/08/04 05:11:04;;;;;;;;;;;;;;;16.75;56.88;100795.47;4973616;28;1497;-58
2022/08/04 05:13:30;;;;;;;;;;;;;;;16.76;56.54;100799.88;4974599;28;1976;-58
2022/08/04 05:15:56;;;;;;;;;;;;;;;16.67;56.66;100804.25;4973465;28;1212;-58
2022/08/04 05:18:27;;;;;;;;;;;;;;;16.66;56.80;100804.53;5001604;28;1069;-58
2022/08/04 05:20:54;;;;;;;;;;;;;;;16.62;56.65;100804.25;4965430;28;789;-58
2022/08/04 05:23:24;;;;;;;;;;;;;;;16.65;56.45;100806.47;4971469;28;2127;-58
2022/08/04 05:25:53;;;;;;;;;;;;;;;16.58;56.42;100811.41;5009788;28;1094;-58
2022/08/04 05:28:23;;;;;;;;;;;;;;;16.58;56.45;100811.41;5003401;28;1041;-58
2022/08/04 05:30:50;;;;;;;;;;;;;;;16.53;56.69;100809.44;4978424;28;1089;-58
2022/08/04 05:33:17;;;;;;;;;;;;;;;16.56;56.38;100811.66;5010508;28;1918;-58
2022/08/04 05:35:43;;;;;;;;;;;;;;;16.51;56.58;100805.31;5010675;28;978;-57
2022/08/04 05:38:09;;;;;;;;;;;;;;;16.53;56.37;100814.13;4994601;28;1094;-58
2022/08/04 05:40:35;;;;;;;;;;;;;;;16.47;56.55;100816.03;5001886;28;1356;-59
2022/08/04 05:43:01;;;;;;;;;;;;;;;16.54;56.35;100808.34;4971373;28;1138;-60
2022/08/04 05:45:26;;;;;;;;;;;;;;;16.51;56.23;100811.66;4968934;28;927;-57
2022/08/04 05:47:52;;;;;;;;;;;;;;;16.52;56.91;100809.72;5005874;28;1184;-59
2022/08/04 05:50:18;;;;;;;;;;;;;;;18.27;52.94;100792.88;4977546;28;1097;-55
2022/08/04 05:52:43;;;;;;;;;;;;;;;17.52;54.13;100813.00;4977877;28;2005;-56
2022/08/04 05:55:09;;;;;;;;;;;;;;;18.75;52.34;100801.38;4992884;28;1026;-56
2022/08/04 05:57:34;;;;;;;;;;;;;;;16.31;58.87;100801.44;4976788;28;1539;-56
2022/08/04 06:00:00;;;;;;;;;;;;;;;16.98;58.07;100814.44;4991816;28;1500;-57
2022/08/04 06:02:26;;;;;;;;;;;;;;;18.13;54.73;100807.28;4991492;28;1639;-59
2022/08/04 06:04:51;;;;;;;;;;;;;;;15.36;62.60;100807.88;4992410;28;1477;-56
2022/08/04 06:07:17;;;;;;;;;;;;;;;18.22;55.48;100807.50;4994283;28;1062;-57
2022/08/04 06:09:42;;;;;;;;;;;;;;;16.94;58.83;100803.19;4978427;28;892;-56
2022/08/04 06:12:10;;;;;;;;;;;;;;;16.49;61.10;100815.75;4978578;28;1898;-52
2022/08/04 06:14:39;;;;;;;;;;;;;;;18.76;54.52;100800.28;4978573;28;1205;-56
2022/08/04 06:17:05;;;;;;;;;;;;;;;15.35;62.71;100804.31;4967377;28;863;-57
2022/08/04 06:19:30;;;;;;;;;;;;;;;18.02;57.51;100802.09;4990769;28;1129;-57
2022/08/04 06:21:56;;;;;;;;;;;;;;;17.28;59.09;100806.19;4978790;28;900;-56
2022/08/04 06:24:22;;;;;;;;;;;;;;;15.87;63.67;100807.34;4978638;28;1188;-59
2022/08/04 06:26:48;;;;;;;;;;;;;;;19.05;55.22;100806.94;4993582;28;1173;-58
2022/08/04 06:29:22;;;;;;;;;;;;;;;15.82;62.75;100799.09;4978509;28;1021;-58
2022/08/04 06:31:57;;;;;;;;;;;;;;;17.78;59.43;100794.47;4993148;28;1098;-57
2022/08/04 06:34:22;;;;;;;;;;;;;;;17.43;59.32;100793.50;4978042;28;1090;-56
2022/08/04 06:36:48;;;;;;;;;;;;;;;15.72;63.55;100799.84;4978007;28;1112;-57
2022/08/04 06:39:13;;;;;;;;;;;;;;;18.84;56.70;100790.56;4986386;28;1153;-57
2022/08/04 06:41:39;;;;;;;;;;;;;;;15.77;63.62;100788.91;4973305;28;1067;-56
2022/08/04 06:44:05;;;;;;;;;;;;;;;17.46;61.54;100784.72;4977739;28;1272;-54
2022/08/04 06:46:31;;;;;;;;;;;;;;;17.83;59.33;100791.72;4976954;28;2222;-56
2022/08/04 06:48:56;;;;;;;;;;;;;;;15.44;65.22;100788.19;4984637;28;1201;-55
2022/08/04 06:51:22;;;;;;;;;;;;;;;18.61;58.14;100794.88;4992966;28;1089;-56
2022/08/04 06:53:47;;;;;;;;;;;;;;;16.26;63.34;100790.47;4979915;28;1967;-53
2022/08/04 06:56:14;;;;;;;;;;;;;;;16.79;63.34;100795.75;4996481;28;1887;-53
2022/08/04 06:58:39;;;;;;;;;;;;;;;18.05;59.52;100793.31;4991631;28;1950;-54
2022/08/04 07:01:05;;;;;;;;;;;;;;;15.11;65.75;100800.31;4996665;28;1812;-52
2022/08/04 07:03:30;;;;;;;;;;;;;;;18.47;59.71;100795.53;4995655;28;1152;-57
2022/08/04 07:05:55;;;;;;;;;;;;;;;16.88;62.54;100787.78;5010492;28;1371;-58
2022/08/04 07:08:21;;;;;;;;;;;;;;;16.41;65.97;100796.00;4996405;28;1158;-57
2022/08/04 07:10:46;;;;;;;;;;;;;;;18.76;58.60;100794.75;4995774;28;870;-55
2022/08/04 07:13:15;;;;;;;;;;;;;;;15.58;65.37;100796.75;5006822;28;1979;-53
2022/08/04 07:15:40;;;;;;;;;;;;;;;17.27;65.26;100795.47;4997305;28;1161;-58
2022/08/04 07:18:06;;;;;;;;;;;;;;;17.48;63.72;100788.00;4994976;28;1176;-58
2022/08/04 07:20:31;;;;;;;;;;;;;;;15.44;69.03;100785.44;4995747;28;1085;-58
2022/08/04 07:22:58;;;;;;;;;;;;;;;18.78;61.80;100789.78;5011444;28;923;-57
2022/08/04 07:25:24;;;;;;;;;;;;;;;15.89;65.82;100789.53;4982155;28;1027;-56
2022/08/04 07:27:49;;;;;;;;;;;;;;;16.92;67.93;100789.72;5012252;28;1149;-59
2022/08/04 07:30:15;;;;;;;;;;;;;;;17.85;63.13;100780.44;4996915;28;1788;-56
2022/08/04 07:32:42;;;;;;;;;;;;;;;15.23;68.37;100782.63;4995231;28;1947;-56
2022/08/04 07:35:07;;;;;;;;;;;;;;;18.08;63.79;100787.22;5010565;28;943;-57
2022/08/04 07:37:33;;;;;;;;;;;;;;;16.06;66.21;100789.31;4995924;28;1121;-58
2022/08/04 07:39:59;;;;;;;;;;;;;;;17.03;67.93;100784.25;5010001;28;1109;-54
2022/08/04 07:42:24;;;;;;;;;;;;;;;18.66;61.88;100789.31;4996031;28;1275;-54
2022/08/04 07:44:50;;;;;;;;;;;;;;;15.31;66.50;100778.53;4996540;28;1248;-56
2022/08/04 07:47:15;;;;;;;;;;;;;;;17.92;65.45;100778.22;4999612;28;979;-49
2022/08/04 07:49:41;;;;;;;;;;;;;;;16.73;65.42;100772.13;4993975;28;1018;-53
2022/08/04 07:52:06;;;;;;;;;;;;;;;16.23;69.59;100788.28;4995854;28;1973;-55
2022/08/04 07:54:32;;;;;;;;;;;;;;;18.98;62.01;100787.97;4995507;28;1137;-56
2022/08/04 07:56:57;;;;;;;;;;;;;;;15.62;66.56;100784.19;4995924;28;1193;-57
2022/08/04 07:59:23;;;;;;;;;;;;;;;16.94;66.92;100772.97;4995651;28;2069;-55
2022/08/04 08:01:49;;;;;;;;;;;;;;;17.26;65.68;100783.66;4995823;28;1125;-57
2022/08/04 08:04:14;;;;;;;;;;;;;;;16.00;70.06;100771.19;5007552;28;1074;-63
2022/08/04 08:06:40;;;;;;;;;;;;;;;18.97;64.10;100775.31;4984618;28;1256;-59
2022/08/04 08:09:10;;;;;;;;;;;;;;;16.11;66.95;100773.97;4995744;28;1304;-62
2022/08/04 08:11:35;;;;;;;;;;;;;;;16.39;69.55;100787.19;4982007;28;992;-59
2022/08/04 08:14:01;;;;;;;;;;;;;;;17.82;65.97;100773.56;5010928;28;1922;-60
2022/08/04 08:16:26;;;;;;;;;;;;;;;15.43;70.09;100772.03;4995921;28;1090;-59
2022/08/04 08:18:52;;;;;;;;;;;;;;;18.42;66.20;100770.75;5000624;28;1216;-59
2022/08/04 08:21:20;;;;;;;;;;;;;;;16.31;67.32;100776.75;4988394;28;1040;-61
2022/08/04 08:23:46;;;;;;;;;;;;;;;16.59;71.03;100780.06;4973902;28;1220;-58
2022/08/04 08:26:11;;;;;;;;;;;;;;;18.62;64.70;100766.22;4976019;28;1113;-59
2022/08/04 08:28:37;;;;;;;;;;;;;;;15.30;67.51;100789.75;4976185;28;1109;-48
2022/08/04 08:31:02;;;;;;;;;;;;;;;17.72;68.62;100779.94;4988491;28;1101;-60
2022/08/04 08:33:28;;;;;;;;;;;;;;;16.49;68.09;100785.56;4991689;28;1958;-60
2022/08/04 08:36:00;;;;;;;;;;;;;;;16.10;69.94;100773.13;4978827;28;1114;-60
2022/08/04 08:38:37;;;;;;;;;;;;;;;18.61;65.32;100770.09;5011009;28;1220;-60
2022/08/04 08:41:12;;;;;;;;;;;;;;;15.26;67.31;100767.53;4995444;28;928;-57
2022/08/04 08:43:50;;;;;;;;;;;;;;;18.19;67.88;100776.97;5007119;28;1050;-59
2022/08/04 08:46:34;;;;;;;;;;;;;;;16.20;67.69;100775.06;4981591;28;1110;-57
2022/08/04 08:49:05;;;;;;;;;;;;;;;16.83;70.38;100768.53;4975858;28;1181;-57
2022/08/04 08:51:46;;;;;;;;;;;;;;;17.52;66.77;100778.09;4987658;28;1160;-57
2022/08/04 08:54:14;;;;;;;;;;;;;;;15.69;70.92;100784.75;4995267;28;1991;-57
2022/08/04 08:56:46;;;;;;;;;;;;;;;18.66;66.45;100783.81;4994911;28;1145;-57
2022/08/04 08:59:30;;;;;;;;;;;;;;;15.71;67.89;100776.25;4997566;28;1267;-57
2022/08/04 09:02:09;;;;;;;;;;;;;;;17.44;69.00;100768.47;4988144;28;1098;-57
2022/08/04 09:04:47;;;;;;;;;;;;;;;16.40;68.56;100769.63;4999817;28;1118;-55
2022/08/04 09:07:30;;;;;;;;;;;;;;;16.02;72.85;100768.16;4999269;28;1220;-50
2022/08/04 09:10:07;;;;;;;;;;;;;;;17.90;68.29;100764.72;4999813;28;1168;-57
2022/08/04 09:12:42;;;;;;;;;;;;;;;15.52;71.60;100762.22;4982412;28;1906;-56
2022/08/04 09:15:14;;;;;;;;;;;;;;;18.42;69.41;100759.75;4999212;28;1141;-55
2022/08/04 09:17:42;;;;;;;;;;;;;;;15.94;69.08;100758.56;5014289;28;1109;-57
2022/08/04 09:20:21;;;;;;;;;;;;;;;16.61;72.15;100758.69;5014933;28;1157;-56
2022/08/04 09:22:55;;;;;;;;;;;;;;;17.16;68.80;100749.88;5014001;28;1184;-56
2022/08/04 09:25:24;;;;;;;;;;;;;;;15.97;71.82;100744.31;4999521;28;1153;-57
2022/08/04 09:27:54;;;;;;;;;;;;;;;18.63;68.24;100746.66;4999530;28;1182;-57
2022/08/04 09:30:39;;;;;;;;;;;;;;;15.80;68.47;100740.97;4999288;28;1141;-57
2022/08/04 09:33:04;;;;;;;;;;;;;;;17.16;70.53;100750.69;5014188;28;1902;-57
2022/08/04 09:35:36;;;;;;;;;;;;;;;16.88;68.41;100746.59;4998694;28;963;-59
2022/08/04 09:38:10;;;;;;;;;;;;;;;16.24;71.65;100741.38;4991603;28;1546;-59
2022/08/04 09:40:50;;;;;;;;;;;;;;;18.93;66.60;100743.97;5012818;28;1070;-58
2022/08/04 09:43:16;;;;;;;;;;;;;;;15.43;68.10;100744.63;4998761;28;1118;-59
2022/08/04 09:45:43;;;;;;;;;;;;;;;17.51;70.12;100748.13;4997769;28;1075;-62
2022/08/04 09:48:11;;;;;;;;;;;;;;;16.59;68.26;100753.47;5014415;28;915;-59
2022/08/04 09:50:37;;;;;;;;;;;;;;;16.21;70.96;100752.03;5014269;28;1128;-53
2022/08/04 09:53:21;;;;;;;;;;;;;;;18.80;66.65;100746.25;4990529;28;1913;-59
2022/08/04 09:55:58;;;;;;;;;;;;;;;15.30;68.05;100744.00;4994201;28;1211;-58
2022/08/04 09:58:27;;;;;;;;;;;;;;;18.05;68.34;100736.34;4999243;28;1094;-59
2022/08/04 10:00:57;;;;;;;;;;;;;;;16.25;67.92;100737.50;4993332;28;1121;-58
2022/08/04 10:03:24;;;;;;;;;;;;;;;16.16;70.81;100750.13;4999093;28;1208;-58
2022/08/04 10:06:08;;;;;;;;;;;;;;;18.41;65.92;100736.09;5012001;28;1180;-50
2022/08/04 10:08:36;;;;;;;;;;;;;;;15.53;70.08;100736.47;4989626;28;1125;-57
2022/08/04 10:11:06;;;;;;;;;;;;;;;18.43;66.26;100739.38;4996561;28;1069;-55
2022/08/04 10:13:37;;;;;;;;;;;;;;;16.04;67.70;100736.66;5011236;28;1906;-57
2022/08/04 10:16:06;;;;;;;;;;;;;;;17.17;70.48;100746.03;5010232;28;1259;-58
2022/08/04 10:18:31;;;;;;;;;;;;;;;18.21;65.76;100739.00;5011196;28;1152;-57
2022/08/04 10:21:15;;;;;;;;;;;;;;;15.23;67.16;100744.25;4980143;28;1235;-59
2022/08/04 10:23:45;;;;;;;;;;;;;;;18.26;68.21;100742.53;4983690;28;935;-60
2022/08/04 10:26:11;;;;;;;;;;;;;;;15.80;68.30;100740.97;5010287;28;1141;-55
2022/08/04 10:28:43;;;;;;;;;;;;;;;17.19;70.22;100743.81;4989364;28;1176;-55
2022/08/04 10:31:09;;;;;;;;;;;;;;;17.64;66.83;100733.75;5012146;28;975;-56
2022/08/04 10:33:48;;;;;;;;;;;;;;;15.16;69.36;100745.56;4996349;28;1965;-55
2022/08/04 10:36:16;;;;;;;;;;;;;;;18.31;67.48;100741.66;4997757;28;1157;-57
2022/08/04 10:38:41;;;;;;;;;;;;;;;15.68;67.94;100733.78;4995904;28;1137;-52
2022/08/04 10:41:08;;;;;;;;;;;;;;;17.33;69.60;100733.88;4998181;28;1156;-50
2022/08/04 10:43:39;;;;;;;;;;;;;;;17.72;66.55;100735.91;5013628;28;1126;-54
2022/08/04 10:46:06;;;;;;;;;;;;;;;15.19;69.01;100734.94;5013186;28;1374;-54
2022/08/04 10:48:32;;;;;;;;;;;;;;;18.25;67.44;100737.31;5012388;28;1097;-53
2022/08/04 10:51:00;;;;;;;;;;;;;;;15.77;67.99;100733.25;4997199;28;921;-54
2022/08/04 10:53:25;;;;;;;;;;;;;;;17.09;68.49;100736.41;5012929;28;1975;-58
2022/08/04 10:55:52;;;;;;;;;;;;;;;17.95;65.63;100728.16;5012641;28;1212;-54
2022/08/04 10:58:19;;;;;;;;;;;;;;;15.25;69.41;100723.97;5010552;28;956;-52
2022/08/04 11:00:44;;;;;;;;;;;;;;;18.16;66.67;100723.34;5011738;28;907;-60
2022/08/04 11:03:16;;;;;;;;;;;;;;;16.00;67.83;100718.25;4980917;28;1181;-56
2022/08/04 11:05:48;;;;;;;;;;;;;;;16.91;69.34;100710.34;4998163;28;1473;-57
2022/08/04 11:08:17;;;;;;;;;;;;;;;18.21;65.34;100711.47;5013156;28;1118;-51
2022/08/04 11:10:45;;;;;;;;;;;;;;;15.08;69.22;100710.47;4997787;28;1146;-57
2022/08/04 11:13:12;;;;;;;;;;;;;;;18.23;67.29;100712.00;4997483;28;1907;-58
2022/08/04 11:15:38;;;;;;;;;;;;;;;16.07;67.53;100721.56;5012951;28;1195;-57
2022/08/04 11:18:05;;;;;;;;;;;;;;;17.02;71.09;100725.72;5013282;28;1121;-58
2022/08/04 11:20:37;;;;;;;;;;;;;;;18.76;64.73;100725.91;4998336;28;1207;-57
2022/08/04 11:23:15;;;;;;;;;;;;;;;15.15;67.45;100724.75;4996632;28;1181;-55
2022/08/04 11:25:43;;;;;;;;;;;;;;;17.79;67.37;100719.97;5013286;28;1195;-55
2022/08/04 11:28:15;;;;;;;;;;;;;;;15.75;67.68;100733.50;4997722;28;1153;-57
2022/08/04 11:30:40;;;;;;;;;;;;;;;17.46;68.55;100726.97;5013151;28;1133;-55
2022/08/04 11:33:41;;;;;;;;;;;;;;;18.40;64.86;100730.88;4997612;28;1882;-57
2022/08/04 11:36:06;;;;;;;;;;;;;;;15.64;70.26;100729.94;4974807;28;1131;-58
2022/08/04 11:38:50;;;;;;;;;;;;;;;18.57;66.17;100730.47;4992598;28;1114;-58
2022/08/04 11:41:17;;;;;;;;;;;;;;;15.28;67.50;100728.91;4997762;28;1173;-57
2022/08/04 11:43:43;;;;;;;;;;;;;;;17.89;67.93;100718.25;4997204;28;1153;-57
2022/08/04 11:46:14;;;;;;;;;;;;;;;17.07;66.87;100709.22;4997723;28;1141;-60
2022/08/04 11:48:55;;;;;;;;;;;;;;;15.69;70.57;100718.97;5004308;28;1183;-52
2022/08/04 11:51:21;;;;;;;;;;;;;;;18.62;65.86;100703.72;5009579;28;1078;-54
2022/08/04 11:53:46;;;;;;;;;;;;;;;15.30;67.72;100711.13;4978370;28;1977;-54
2022/08/04 11:56:12;;;;;;;;;;;;;;;17.90;67.96;100706.94;5012047;28;1164;-51
2022/08/04 11:58:37;;;;;;;;;;;;;;;17.03;67.28;100713.63;5012430;28;1204;-53
2022/08/04 12:01:23;;;;;;;;;;;;;;;15.55;70.39;100728.78;4997336;28;819;-54
2022/08/04 12:04:09;;;;;;;;;;;;;;;18.53;65.79;100727.47;4996888;28;1388;-51
2022/08/04 12:06:48;;;;;;;;;;;;;;;15.10;69.66;100722.00;4979791;28;739;-53
2022/08/04 12:09:32;;;;;;;;;;;;;;;18.40;66.73;100728.13;4997009;28;1205;-52
2022/08/04 12:12:04;;;;;;;;;;;;;;;15.82;67.96;100722.31;4991370;28;1361;-56
2022/08/04 12:14:29;;;;;;;;;;;;;;;17.38;69.98;100717.38;4990172;28;1907;-57
2022/08/04 12:16:59;;;;;;;;;;;;;;;17.75;66.40;100720.78;4997435;28;1229;-54
2022/08/04 12:19:28;;;;;;;;;;;;;;;15.17;69.60;100726.13;4997165;28;845;-54
2022/08/04 12:21:54;;;;;;;;;;;;;;;18.22;67.73;100721.38;4996930;28;945;-57
2022/08/04 12:24:21;;;;;;;;;;;;;;;15.76;67.87;100723.38;5012220;28;901;-50
2022/08/04 12:26:53;;;;;;;;;;;;;;;17.36;70.06;100722.34;4980023;28;851;-58
2022/08/04 12:29:19;;;;;;;;;;;;;;;17.85;66.25;100715.25;4979639;28;751;-57
2022/08/04 12:31:46;;;;;;;;;;;;;;;15.08;68.87;100724.16;4979724;28;841;-57
2022/08/04 12:34:23;;;;;;;;;;;;;;;18.16;67.68;100723.34;4979611;28;1910;-52
2022/08/04 12:37:08;;;;;;;;;;;;;;;15.77;67.77;100714.88;4996171;28;1036;-54
2022/08/04 12:39:33;;;;;;;;;;;;;;;17.54;69.46;100712.63;4995974;28;1085;-53
2022/08/04 12:42:25;;;;;;;;;;;;;;;17.33;66.63;100706.38;5011415;28;1177;-55
2022/08/04 12:44:53;;;;;;;;;;;;;;;15.67;69.69;100706.63;4973534;28;1241;-54
2022/08/04 12:47:21;;;;;;;;;;;;;;;18.37;65.30;100721.25;4994955;28;1304;-54
2022/08/04 12:49:47;;;;;;;;;;;;;;;15.15;67.26;100717.38;4992994;28;1225;-56
2022/08/04 12:52:13;;;;;;;;;;;;;;;18.10;67.08;100714.31;5011326;28;1918;-54
2022/08/04 12:54:39;;;;;;;;;;;;;;;16.89;66.91;100713.38;4994887;28;1303;-51
2022/08/04 12:57:06;;;;;;;;;;;;;;;16.04;70.97;100714.69;5011461;28;1268;-50
2022/08/04 12:59:38;;;;;;;;;;;;;;;18.76;65.59;100712.13;4996300;28;1197;-49
2022/08/04 13:02:03;;;;;;;;;;;;;;;15.47;67.67;100716.41;4996596;28;1236;-56
2022/08/04 13:04:29;;;;;;;;;;;;;;;17.75;68.79;100702.38;5011324;28;1085;-58